Rakitna Rakitna

Učna pot


Napoved ravni onesnaženosti z delci PM10 več informacij Air pollution


Moja kamera več informacij My webcam


Cestna kamera več informacij Road camera


ARSO, spremljajte nas več informacij


Obiščite še:

Template documentacija
in prenos

in še drugo stran



Posebna pozornost v zvezi z vremenskimi dogajanji ni potrebna.    Posebna pozornost v zvezi z vremenskimi dogajanji ni potrebna.

METAR v bližini

   
LJLJ - Ljubljana
Posodobljeno: 29-03-2020 04:30
jasno  
jasno  
   Veter: ZSZ 7.4 km/h
Veter: ZSZ 7.4 km/h
Temperatura: 0°C
Občutek mraza: -3°C
Točka rosišča: -2°C
Vlažnost: 87%
Zračni tlak: 1013 hPa
Vidljivost: več kot 10 km
Podrobnosti o oblakih: jasno
LJLJ 290230Z 30004KT CAVOK M00/M02 Q1013 NOSIG
LJCE - Cerklje ob Krki
Posodobljeno: 29-03-2020 05:00
delno oblačno  
delno oblačno  
   Veter: različen 1.9 km/h
Veter: različen 1.9 km/h
Temperatura: 4°C
Točka rosišča: 2°C
Vlažnost: 87%
Zračni tlak: 1013 hPa
Oblaki: delno oblačno
Vidljivost: več kot 10 km
Podrobnosti o oblakih: delno oblačno
LJCE 290300Z AUTO VRB01KT 9999 NSC 04/02 Q1013
LJMB - Maribor
Posodobljeno: 29-03-2020 05:00
delno oblačno  
delno oblačno  
   Veter: različen 3.7 km/h
Veter: različen 3.7 km/h
Temperatura: 4°C
Točka rosišča: 2°C
Vlažnost: 87%
Zračni tlak: 1013 hPa
Oblaki: delno oblačno
Vidljivost: več kot 10 km
Podrobnosti o oblakih: delno oblačno
LJMB 290300Z AUTO VRB02KT 9999 NSC 04/02 Q1013
LJPZ - Portorož
Posodobljeno: 29-03-2020 05:00
pretežno oblačno  
pretežno oblačno  
   Veter: VJV 9.3 km/h
Veter: VJV 9.3 km/h
Temperatura: 5°C
Občutek mraza: 3°C
Točka rosišča: 1°C
Vlažnost: 76%
Zračni tlak: 1013 hPa
Oblaki: pretežno oblačno
Vidljivost: več kot 10 km
Podrobnosti o oblakih: pretežno oblačno 6000 ft
LJPZ 290300Z AUTO 12005KT 9999 BKN060/// 05/01 Q1013
LDRI - Rijeka, Airport, Croatia
Posodobljeno: 28-03-2020 19:00
Ni aktualni
jasno  
jasno  
   Veter: SSV 5.6 km/h
Veter: SSV 5.6 km/h
Temperatura: 14°C
Točka rosišča: 1°C
Vlažnost: 41%
Zračni tlak: 1012 hPa
Vidljivost: več kot 10 km
Podrobnosti o oblakih: jasno
LDRI 281800Z 02003KT 360V070 CAVOK 14/01 Q1012
LOWK - Klagenfurt, Airport, Avstia
Posodobljeno: 29-03-2020 04:50
pretežno oblačno  
pretežno oblačno  
   Veter: ZSZ 9.3 km/h
Veter: ZSZ 9.3 km/h
Temperatura: 2°C
Občutek mraza: -1°C
Točka rosišča: 0°C
Vlažnost: 87%
Zračni tlak: 1015 hPa
Oblaki: pretežno oblačno
Vidljivost: več kot 10 km
Podrobnosti o oblakih: nekaj oblakov 9000 ft,
pretežno oblačno 10000 ft
LOWK 290250Z AUTO 29005KT 9999 FEW090 BKN100 02/00 Q1015

Script developed by  Saratoga-weather.org Adapted for the template by  Weerstation Leuven

Vremenski podatki so objavljeni na:

Slovenska vremenska mreža

WeatherlinkIP

MapView

Geostik

Oprema, ki se uporablja:

Vremenska postaja
Davis VP2+ ventilirana

Vremenski program
WeatherLink

Vremenski server
Shuttle XS35V4

Ponudnik
Vremensko društvo ZEVS

Davis VP2+ ventilirana

WeatherLink

Shuttle XS35V4

Vremensko društvo ZEVS

Meteorološki podatki vremenske postaje Rakitna so neuradni, meteorološka postaja sama pa ni del državne mreže Agencije Republike Slovenije za okolje (ARSO),
je pa vključena v Vremensko društvo ZEVS. Prikazani podatki so izmerjeni točno, vendar so zgolj informativni in nimajo značaja uradnega podatka.

Podatke meri vremenska postaja "Davis VP2+ ventilirana" od 05.03.2011 dalje.

Opozarjamo, da ne prevzamemo odgovornosti za morebitno nastalo škodo, ki bi nastala zaradi odločitve, sprejete na osnovi teh podatkov!